Time;durP1;ratioP1;P1;durP2;ratioP2;P2;SDS_P1;SDS_P2;PMS_P1;PMS_P2;Temp;Humidity;BMP_temperature;BMP_pressure;BME280_temperature;BME280_humidity;BME280_pressure;Samples;Min_cycle;Max_cycle;Signal;HPM_P1;HPM_P2
2021/11/21 00:00:41;;;;;;;;;;;9.00;99.90;;;;;;5072694;28;19912;-79
2021/11/21 00:03:07;;;;;;;;;;;9.00;99.90;;;;;;5086220;28;19916;-80
2021/11/21 00:05:33;;;;;;;;;;;9.00;99.90;;;;;;5084494;28;19923;-80
2021/11/21 00:07:58;;;;;;;;;;;9.00;99.90;;;;;;5085161;28;19912;-80
2021/11/21 00:10:24;;;;;;;;;;;8.90;99.90;;;;;;5085648;28;19924;-79
2021/11/21 00:12:50;;;;;;;;;;;9.00;99.90;;;;;;5086980;28;19954;-81
2021/11/21 00:15:15;;;;;;;;;;;8.90;99.90;;;;;;5087876;28;19916;-79
2021/11/21 00:17:41;;;;;;;;;;;9.00;99.90;;;;;;5084583;28;19912;-80
2021/11/21 00:20:07;;;;;;;;;;;9.00;99.90;;;;;;5102207;28;19916;-80
2021/11/21 00:22:35;;;;;;;;;;;9.00;99.90;;;;;;5089191;28;19921;-79
2021/11/21 00:25:02;;;;;;;;;;;9.00;99.90;;;;;;5090658;28;19920;-80
2021/11/21 00:27:27;;;;;;;;;;;9.00;99.90;;;;;;5094080;28;19964;-79
2021/11/21 00:29:54;;;;;;;;;;;9.00;99.90;;;;;;5088251;28;20256;-79
2021/11/21 00:32:20;;;;;;;;;;;9.00;99.90;;;;;;5096216;28;19916;-79
2021/11/21 00:34:47;;;;;;;;;;;9.00;99.90;;;;;;5093644;28;19923;-79
2021/11/21 00:37:13;;;;;;;;;;;9.00;99.90;;;;;;5094981;28;19928;-80
2021/11/21 00:39:39;;;;;;;;;;;9.00;99.90;;;;;;5097126;28;20310;-79
2021/11/21 00:42:04;;;;;;;;;;;9.00;99.90;;;;;;5093180;28;19920;-79
2021/11/21 00:44:30;;;;;;;;;;;9.00;99.90;;;;;;5092995;28;19913;-79
2021/11/21 00:46:55;;;;;;;;;;;9.00;99.90;;;;;;5086416;28;19920;-84
2021/11/21 00:49:21;;;;;;;;;;;8.90;99.90;;;;;;5088857;28;19919;-79
2021/11/21 00:51:47;;;;;;;;;;;8.90;99.90;;;;;;5089276;28;19970;-79
2021/11/21 00:54:39;;;;;;;;;;;8.90;99.90;;;;;;5087471;28;19912;-80
2021/11/21 00:57:05;;;;;;;;;;;8.90;99.90;;;;;;5089179;28;19943;-80
2021/11/21 00:59:31;;;;;;;;;;;8.90;99.90;;;;;;5092526;28;19920;-80
2021/11/21 01:01:57;;;;;;;;;;;9.00;99.90;;;;;;5089323;28;19920;-79
2021/11/21 01:04:22;;;;;;;;;;;9.00;99.90;;;;;;5081450;28;19998;-79
2021/11/21 01:06:48;;;;;;;;;;;9.00;99.90;;;;;;5089449;28;19913;-79
2021/11/21 01:09:14;;;;;;;;;;;9.00;99.90;;;;;;5090383;28;19933;-80
2021/11/21 01:11:40;;;;;;;;;;;9.00;99.90;;;;;;5125459;27;19943;-79
2021/11/21 01:14:06;;;;;;;;;;;9.00;99.90;;;;;;5089437;28;19912;-80
2021/11/21 01:16:32;;;;;;;;;;;9.00;99.90;;;;;;5090591;28;19912;-79
2021/11/21 01:18:57;;;;;;;;;;;9.00;99.90;;;;;;5090197;28;19923;-79
2021/11/21 01:21:24;;;;;;;;;;;9.00;99.90;;;;;;5091664;28;19919;-78
2021/11/21 01:23:49;;;;;;;;;;;9.00;99.90;;;;;;5089992;28;20329;-79
2021/11/21 01:26:15;;;;;;;;;;;9.00;99.90;;;;;;5090895;28;19972;-80
2021/11/21 01:28:40;;;;;;;;;;;9.00;99.90;;;;;;5095694;28;19912;-80
2021/11/21 01:31:06;;;;;;;;;;;9.00;99.90;;;;;;5090239;28;19916;-78
2021/11/21 01:33:32;;;;;;;;;;;9.00;99.90;;;;;;5111692;28;19915;-79
2021/11/21 01:35:57;;;;;;;;;;;9.00;99.90;;;;;;5095164;28;20062;-79
2021/11/21 01:38:23;;;;;;;;;;;9.00;99.90;;;;;;5109702;28;19924;-79
2021/11/21 01:40:49;;;;;;;;;;;9.00;99.90;;;;;;5090298;28;20209;-79
2021/11/21 01:43:17;;;;;;;;;;;9.00;99.90;;;;;;5093685;28;20193;-80
2021/11/21 01:45:44;;;;;;;;;;;9.00;99.90;;;;;;5094403;28;20346;-79
2021/11/21 01:48:09;;;;;;;;;;;9.00;99.90;;;;;;5092168;28;19912;-79
2021/11/21 01:50:39;;;;;;;;;;;9.00;99.90;;;;;;5093077;28;19944;-80
2021/11/21 01:53:05;;;;;;;;;;;9.00;99.90;;;;;;5092735;28;19962;-79
2021/11/21 01:55:32;;;;;;;;;;;9.00;99.90;;;;;;5087149;28;19912;-79
2021/11/21 01:57:58;;;;;;;;;;;9.00;99.90;;;;;;5091741;28;19960;-78
2021/11/21 02:00:25;;;;;;;;;;;9.00;99.90;;;;;;5095278;28;19947;-78
2021/11/21 02:02:51;;;;;;;;;;;9.00;99.90;;;;;;5095406;28;20321;-79
2021/11/21 02:05:17;;;;;;;;;;;9.00;99.90;;;;;;5072819;28;19962;-79
2021/11/21 02:07:42;;;;;;;;;;;9.00;99.90;;;;;;5094316;28;19916;-79
2021/11/21 02:10:09;;;;;;;;;;;9.00;99.90;;;;;;5088584;28;19924;-79
2021/11/21 02:12:34;;;;;;;;;;;9.00;99.90;;;;;;5091727;28;19912;-80
2021/11/21 02:15:00;;;;;;;;;;;9.00;99.90;;;;;;5095578;28;19938;-79
2021/11/21 02:17:26;;;;;;;;;;;9.00;99.90;;;;;;5092649;28;19962;-79
2021/11/21 02:19:52;;;;;;;;;;;9.00;99.90;;;;;;5093958;28;19916;-79
2021/11/21 02:22:17;;;;;;;;;;;9.00;99.90;;;;;;5089208;28;19938;-79
2021/11/21 02:24:43;;;;;;;;;;;9.00;99.90;;;;;;5093897;28;19916;-79
2021/11/21 02:27:08;;;;;;;;;;;9.00;99.90;;;;;;5095194;28;19952;-79
2021/11/21 02:29:34;;;;;;;;;;;9.00;99.90;;;;;;5095227;28;19937;-86
2021/11/21 02:32:00;;;;;;;;;;;9.00;99.90;;;;;;5089242;28;20010;-79
2021/11/21 02:34:25;;;;;;;;;;;9.00;99.90;;;;;;5111892;27;19972;-79
2021/11/21 02:36:51;;;;;;;;;;;9.00;99.90;;;;;;5094383;28;19920;-79
2021/11/21 02:39:17;;;;;;;;;;;9.10;99.90;;;;;;5095314;28;19916;-78
2021/11/21 02:41:43;;;;;;;;;;;9.10;99.90;;;;;;5088389;28;20219;-79
2021/11/21 02:44:08;;;;;;;;;;;9.10;99.90;;;;;;5090434;28;19995;-79
2021/11/21 02:46:36;;;;;;;;;;;9.10;99.90;;;;;;5095133;28;20303;-79
2021/11/21 02:49:02;;;;;;;;;;;9.20;99.90;;;;;;5088587;28;19950;-79
2021/11/21 02:51:27;;;;;;;;;;;9.20;99.90;;;;;;5089063;28;20322;-78
2021/11/21 02:53:53;;;;;;;;;;;9.20;99.90;;;;;;5092476;28;19920;-76
2021/11/21 02:56:18;;;;;;;;;;;9.30;99.90;;;;;;5093618;28;19920;-77
2021/11/21 02:58:45;;;;;;;;;;;9.40;99.90;;;;;;5091881;28;19918;-77
2021/11/21 03:01:18;;;;;;;;;;;9.40;99.90;;;;;;5095733;28;19912;-75
2021/11/21 03:03:43;;;;;;;;;;;9.40;99.90;;;;;;5088830;28;19920;-76
2021/11/21 03:06:09;;;;;;;;;;;9.40;99.90;;;;;;5085822;28;19923;-76
2021/11/21 03:08:35;;;;;;;;;;;9.40;99.90;;;;;;5091260;28;19911;-76
2021/11/21 03:11:19;;;;;;;;;;;9.50;99.90;;;;;;5092382;28;19923;-76
2021/11/21 03:13:44;;;;;;;;;;;9.40;99.90;;;;;;5093290;28;19925;-75
2021/11/21 03:16:10;;;;;;;;;;;9.40;99.90;;;;;;5099503;27;19920;-76
2021/11/21 03:18:36;;;;;;;;;;;9.40;99.90;;;;;;5093664;28;19913;-76
2021/11/21 03:21:01;;;;;;;;;;;9.30;99.90;;;;;;5093461;28;19920;-75
2021/11/21 03:23:27;;;;;;;;;;;9.30;99.90;;;;;;5092334;28;19916;-75
2021/11/21 03:25:52;;;;;;;;;;;9.30;99.90;;;;;;5094176;28;20291;-76
2021/11/21 03:28:18;;;;;;;;;;;9.20;99.90;;;;;;5094221;28;20301;-92
2021/11/21 03:30:44;;;;;;;;;;;9.20;99.90;;;;;;5093136;28;20210;-76
2021/11/21 03:33:09;;;;;;;;;;;9.20;99.90;;;;;;5093112;28;19916;-76
2021/11/21 03:35:35;;;;;;;;;;;9.20;99.90;;;;;;5088917;28;19927;-77
2021/11/21 03:38:01;;;;;;;;;;;9.20;99.90;;;;;;5096277;28;19919;-76
2021/11/21 03:40:27;;;;;;;;;;;9.20;99.90;;;;;;5096245;28;20314;-76
2021/11/21 03:42:53;;;;;;;;;;;9.10;99.90;;;;;;5089286;28;20227;-76
2021/11/21 03:45:19;;;;;;;;;;;9.10;99.90;;;;;;5094288;28;19916;-92
2021/11/21 03:47:45;;;;;;;;;;;9.10;99.90;;;;;;5090748;28;19920;-76
2021/11/21 03:50:12;;;;;;;;;;;9.10;99.90;;;;;;5093744;28;19916;-76
2021/11/21 03:52:39;;;;;;;;;;;9.10;99.90;;;;;;5093801;28;20315;-76
2021/11/21 03:55:05;;;;;;;;;;;9.10;99.90;;;;;;5092406;28;19991;-76
2021/11/21 03:57:30;;;;;;;;;;;9.10;99.90;;;;;;5088390;28;20007;-76
2021/11/21 03:59:56;;;;;;;;;;;9.00;99.90;;;;;;5093645;28;19912;-76
2021/11/21 04:02:22;;;;;;;;;;;9.10;99.90;;;;;;5086937;28;19923;-76
2021/11/21 04:04:48;;;;;;;;;;;9.10;99.90;;;;;;5093829;28;19912;-76
2021/11/21 04:07:13;;;;;;;;;;;9.10;99.90;;;;;;5093501;28;19973;-76
2021/11/21 04:09:40;;;;;;;;;;;9.10;99.90;;;;;;5088286;28;19920;-76
2021/11/21 04:12:05;;;;;;;;;;;9.10;99.90;;;;;;5085844;28;20006;-77
2021/11/21 04:14:31;;;;;;;;;;;9.10;99.90;;;;;;5082917;28;20352;-76
2021/11/21 04:16:57;;;;;;;;;;;9.10;99.90;;;;;;5094639;28;19922;-75
2021/11/21 04:19:22;;;;;;;;;;;9.00;99.90;;;;;;5075594;28;19917;-77
2021/11/21 04:21:48;;;;;;;;;;;9.00;99.90;;;;;;5090485;28;19912;-76
2021/11/21 04:24:14;;;;;;;;;;;9.00;99.90;;;;;;5086029;28;19912;-77
2021/11/21 04:26:44;;;;;;;;;;;9.00;99.90;;;;;;5093464;28;19920;-77
2021/11/21 04:29:10;;;;;;;;;;;9.00;99.90;;;;;;5086727;28;19965;-77
2021/11/21 04:31:36;;;;;;;;;;;9.00;99.90;;;;;;5092445;28;20238;-76
2021/11/21 04:34:01;;;;;;;;;;;9.10;99.90;;;;;;5086967;28;19920;-76
2021/11/21 04:36:27;;;;;;;;;;;9.10;99.90;;;;;;5087604;28;19916;-77
2021/11/21 04:38:52;;;;;;;;;;;9.10;99.90;;;;;;5087673;28;19920;-77
2021/11/21 04:41:18;;;;;;;;;;;9.10;99.90;;;;;;5094009;28;19920;-76
2021/11/21 04:43:44;;;;;;;;;;;9.10;99.90;;;;;;5091155;28;19920;-76
2021/11/21 04:46:09;;;;;;;;;;;9.00;99.90;;;;;;5095045;28;20233;-77
2021/11/21 04:48:35;;;;;;;;;;;9.00;99.90;;;;;;5089991;28;19912;-76
2021/11/21 04:51:00;;;;;;;;;;;9.00;99.90;;;;;;5087308;28;19922;-77
2021/11/21 04:53:26;;;;;;;;;;;9.00;99.90;;;;;;5084784;28;19977;-77
2021/11/21 04:55:52;;;;;;;;;;;9.00;99.90;;;;;;5091876;28;19916;-76
2021/11/21 04:58:17;;;;;;;;;;;9.00;99.90;;;;;;5090882;28;19912;-75
2021/11/21 05:00:44;;;;;;;;;;;8.90;99.90;;;;;;5092138;28;20219;-76
2021/11/21 05:03:09;;;;;;;;;;;8.90;99.90;;;;;;5093610;28;19916;-76
2021/11/21 05:05:35;;;;;;;;;;;8.90;99.90;;;;;;5092650;28;20007;-76
2021/11/21 05:08:04;;;;;;;;;;;8.80;99.90;;;;;;5094017;28;19916;-76
2021/11/21 05:10:29;;;;;;;;;;;8.80;99.90;;;;;;5088531;28;19920;-76
2021/11/21 05:12:55;;;;;;;;;;;8.80;99.90;;;;;;5094064;28;19927;-76
2021/11/21 05:15:22;;;;;;;;;;;8.80;99.90;;;;;;5092315;28;19920;-76
2021/11/21 05:17:49;;;;;;;;;;;8.80;99.90;;;;;;5083479;28;19916;-76
2021/11/21 05:20:15;;;;;;;;;;;8.80;99.90;;;;;;5092236;28;19959;-76
2021/11/21 05:22:41;;;;;;;;;;;8.80;99.90;;;;;;5082143;28;20289;-76
2021/11/21 05:25:07;;;;;;;;;;;8.80;99.90;;;;;;5096217;28;19998;-76
2021/11/21 05:27:32;;;;;;;;;;;8.80;99.90;;;;;;5095139;28;20041;-76
2021/11/21 05:29:58;;;;;;;;;;;8.80;99.90;;;;;;5097260;28;19919;-76
2021/11/21 05:32:23;;;;;;;;;;;8.70;99.90;;;;;;5097036;28;19920;-76
2021/11/21 05:34:51;;;;;;;;;;;8.70;99.90;;;;;;5090401;28;20356;-76
2021/11/21 05:37:17;;;;;;;;;;;8.70;99.90;;;;;;5091210;28;20207;-76
2021/11/21 05:39:43;;;;;;;;;;;8.70;99.90;;;;;;5095449;28;19916;-76
2021/11/21 05:42:08;;;;;;;;;;;8.70;99.90;;;;;;5096237;28;20416;-75
2021/11/21 05:44:34;;;;;;;;;;;8.70;99.90;;;;;;5089039;28;20323;-76
2021/11/21 05:47:00;;;;;;;;;;;8.60;99.90;;;;;;5090509;28;19912;-76
2021/11/21 05:49:26;;;;;;;;;;;8.60;99.90;;;;;;5097757;28;20313;-76
2021/11/21 05:51:51;;;;;;;;;;;8.60;99.90;;;;;;5093351;28;19920;-76
2021/11/21 05:54:17;;;;;;;;;;;8.50;99.90;;;;;;5095426;28;19920;-76
2021/11/21 05:56:42;;;;;;;;;;;8.50;99.90;;;;;;5093020;28;19916;-76
2021/11/21 05:59:08;;;;;;;;;;;8.50;99.90;;;;;;5089989;28;19923;-76
2021/11/21 06:01:33;;;;;;;;;;;8.40;99.90;;;;;;5094201;28;19913;-76
2021/11/21 06:03:59;;;;;;;;;;;8.40;99.90;;;;;;5092381;28;20387;-76
2021/11/21 06:06:25;;;;;;;;;;;8.40;99.90;;;;;;5087791;28;19947;-76
2021/11/21 06:08:50;;;;;;;;;;;8.30;99.90;;;;;;5090544;28;19912;-75
2021/11/21 06:11:16;;;;;;;;;;;8.30;99.90;;;;;;5095429;28;19916;-76
2021/11/21 06:13:42;;;;;;;;;;;8.30;99.90;;;;;;5094023;28;19920;-88
2021/11/21 06:16:07;;;;;;;;;;;8.30;99.90;;;;;;5096890;28;20276;-76
2021/11/21 06:18:33;;;;;;;;;;;8.30;99.90;;;;;;5087241;28;19917;-75
2021/11/21 06:20:59;;;;;;;;;;;8.20;99.90;;;;;;5095514;28;19941;-75
2021/11/21 06:23:24;;;;;;;;;;;8.20;99.90;;;;;;5075609;28;19912;-76
2021/11/21 06:25:50;;;;;;;;;;;8.20;99.90;;;;;;5092291;28;19920;-75
2021/11/21 06:28:17;;;;;;;;;;;8.20;99.90;;;;;;5095822;28;20222;-76
2021/11/21 06:30:43;;;;;;;;;;;8.20;99.90;;;;;;5094050;28;19921;-76
2021/11/21 06:33:09;;;;;;;;;;;8.20;99.90;;;;;;5083226;28;19923;-76
2021/11/21 06:35:36;;;;;;;;;;;8.20;99.90;;;;;;5089943;28;19913;-76
2021/11/21 06:38:01;;;;;;;;;;;8.20;99.90;;;;;;5087274;28;20650;-76
2021/11/21 06:40:27;;;;;;;;;;;8.20;99.90;;;;;;5094875;28;19920;-75
2021/11/21 06:42:53;;;;;;;;;;;8.20;99.90;;;;;;5095516;28;19912;-76
2021/11/21 06:45:18;;;;;;;;;;;8.20;99.90;;;;;;5109687;28;19918;-75
2021/11/21 06:47:44;;;;;;;;;;;8.10;99.90;;;;;;5094841;28;20004;-75
2021/11/21 06:50:11;;;;;;;;;;;8.10;99.90;;;;;;5094623;28;19923;-76
2021/11/21 06:52:37;;;;;;;;;;;8.10;99.90;;;;;;5093978;28;19931;-76
2021/11/21 06:55:03;;;;;;;;;;;8.10;99.90;;;;;;5109093;28;19920;-76
2021/11/21 06:57:30;;;;;;;;;;;8.10;99.90;;;;;;5092651;28;19938;-92
2021/11/21 06:59:56;;;;;;;;;;;8.00;99.90;;;;;;5095710;28;20363;-76
2021/11/21 07:02:22;;;;;;;;;;;7.90;99.90;;;;;;5093392;28;19916;-76
2021/11/21 07:04:49;;;;;;;;;;;7.80;99.90;;;;;;5092200;28;20295;-76
2021/11/21 07:07:15;;;;;;;;;;;7.60;99.90;;;;;;5090979;28;19912;-76
2021/11/21 07:09:41;;;;;;;;;;;7.50;99.90;;;;;;5093617;28;19926;-76
2021/11/21 07:12:07;;;;;;;;;;;7.50;99.90;;;;;;5091906;28;19945;-76
2021/11/21 07:14:33;;;;;;;;;;;7.50;99.90;;;;;;5093271;28;19912;-76
2021/11/21 07:16:58;;;;;;;;;;;7.50;99.90;;;;;;5093398;28;20217;-76
2021/11/21 07:19:24;;;;;;;;;;;7.40;99.90;;;;;;5091206;28;19989;-76
2021/11/21 07:21:50;;;;;;;;;;;7.40;99.90;;;;;;5093398;28;19916;-76
2021/11/21 07:24:16;;;;;;;;;;;7.30;99.90;;;;;;5092444;28;19919;-76
2021/11/21 07:26:42;;;;;;;;;;;7.20;99.90;;;;;;5091580;28;19920;-76
2021/11/21 07:29:08;;;;;;;;;;;7.10;99.90;;;;;;5092174;28;19920;-76
2021/11/21 07:31:34;;;;;;;;;;;7.20;99.90;;;;;;5085497;28;19930;-92
2021/11/21 07:34:00;;;;;;;;;;;7.20;99.90;;;;;;5088340;28;20349;-78
2021/11/21 07:36:26;;;;;;;;;;;7.30;99.90;;;;;;5080365;28;20041;-76
2021/11/21 07:41:55;;;;;;;;;;;7.20;99.90;;;;;;5092200;28;20302;-76
2021/11/21 07:44:21;;;;;;;;;;;7.10;99.90;;;;;;5093134;28;20241;-76
2021/11/21 07:46:46;;;;;;;;;;;7.10;99.90;;;;;;5085957;28;19927;-75
2021/11/21 07:49:12;;;;;;;;;;;7.00;99.90;;;;;;5092668;28;19920;-75
2021/11/21 07:51:38;;;;;;;;;;;6.90;99.90;;;;;;5092534;28;19916;-91
2021/11/21 07:54:03;;;;;;;;;;;6.80;99.90;;;;;;5089399;28;19912;-77
2021/11/21 07:56:29;;;;;;;;;;;6.80;99.90;;;;;;5094347;28;19923;-91
2021/11/21 07:58:54;;;;;;;;;;;6.70;99.90;;;;;;5093339;28;19912;-75
2021/11/21 08:01:20;;;;;;;;;;;6.60;99.90;;;;;;5094577;28;20504;-76
2021/11/21 08:03:46;;;;;;;;;;;6.60;99.90;;;;;;5089716;28;19916;-76
2021/11/21 08:06:11;;;;;;;;;;;6.50;99.90;;;;;;5088418;28;19912;-76
2021/11/21 08:08:38;;;;;;;;;;;6.60;99.90;;;;;;5092485;28;19991;-76
2021/11/21 08:11:03;;;;;;;;;;;6.60;99.90;;;;;;5092610;28;19993;-76
2021/11/21 08:13:29;;;;;;;;;;;6.60;99.90;;;;;;5093214;28;19986;-76
2021/11/21 08:15:55;;;;;;;;;;;6.60;99.90;;;;;;5093780;28;19920;-76
2021/11/21 08:18:21;;;;;;;;;;;6.50;99.90;;;;;;5093185;28;19916;-76
2021/11/21 08:20:46;;;;;;;;;;;6.50;99.90;;;;;;5093496;28;20260;-76
2021/11/21 08:23:12;;;;;;;;;;;6.40;99.90;;;;;;5096170;28;20188;-75
2021/11/21 08:25:38;;;;;;;;;;;6.40;99.90;;;;;;5095633;28;19919;-87
2021/11/21 08:28:04;;;;;;;;;;;6.40;99.90;;;;;;5091557;28;20003;-92
2021/11/21 08:30:32;;;;;;;;;;;6.40;99.90;;;;;;5089764;28;19931;-75
2021/11/21 08:32:58;;;;;;;;;;;6.50;99.90;;;;;;5095388;28;19996;-76
2021/11/21 08:35:23;;;;;;;;;;;6.50;99.90;;;;;;5085958;28;20296;-76
2021/11/21 08:37:49;;;;;;;;;;;6.60;99.90;;;;;;5093598;28;20017;-76
2021/11/21 08:40:14;;;;;;;;;;;6.70;99.90;;;;;;5089890;28;19913;-76
2021/11/21 08:42:40;;;;;;;;;;;6.80;99.90;;;;;;5093919;28;19912;-75
2021/11/21 08:45:07;;;;;;;;;;;6.90;99.90;;;;;;5085993;28;20007;-76
2021/11/21 08:47:32;;;;;;;;;;;7.00;99.90;;;;;;5092798;28;19923;-76
2021/11/21 08:49:58;;;;;;;;;;;7.10;99.90;;;;;;5094702;28;19913;-76
2021/11/21 08:52:23;;;;;;;;;;;7.30;99.90;;;;;;5097129;28;20011;-76
2021/11/21 08:54:49;;;;;;;;;;;7.40;99.90;;;;;;5093083;28;19986;-76
2021/11/21 08:57:15;;;;;;;;;;;7.50;99.90;;;;;;5094562;28;20368;-75
2021/11/21 08:59:40;;;;;;;;;;;7.50;99.90;;;;;;5099302;28;19933;-76
2021/11/21 09:02:06;;;;;;;;;;;7.50;99.90;;;;;;5098989;28;19912;-75
2021/11/21 09:04:31;;;;;;;;;;;7.40;99.90;;;;;;5097569;28;19916;-76
2021/11/21 09:06:57;;;;;;;;;;;7.40;99.90;;;;;;5093788;28;20291;-75
2021/11/21 09:09:23;;;;;;;;;;;7.50;99.90;;;;;;5108989;28;19920;-76
2021/11/21 09:11:48;;;;;;;;;;;7.50;99.90;;;;;;5095541;28;19923;-76
2021/11/21 09:14:14;;;;;;;;;;;7.70;99.90;;;;;;5091888;28;20371;-75
2021/11/21 09:16:40;;;;;;;;;;;7.80;99.90;;;;;;5100116;28;20400;-76
2021/11/21 09:19:06;;;;;;;;;;;8.00;99.90;;;;;;5088793;28;19919;-75
2021/11/21 09:21:31;;;;;;;;;;;8.10;99.90;;;;;;5099297;28;19915;-75
2021/11/21 09:23:57;;;;;;;;;;;8.20;99.90;;;;;;5097550;28;20298;-76
2021/11/21 09:26:24;;;;;;;;;;;8.30;99.90;;;;;;5095043;28;19916;-76
2021/11/21 09:28:50;;;;;;;;;;;8.40;99.90;;;;;;5095164;28;20011;-76
2021/11/21 09:31:16;;;;;;;;;;;8.50;99.90;;;;;;5094537;28;19916;-76
2021/11/21 09:33:42;;;;;;;;;;;8.50;99.90;;;;;;5096192;28;20389;-77
2021/11/21 09:36:10;;;;;;;;;;;8.50;99.90;;;;;;5093582;28;19916;-76
2021/11/21 09:38:35;;;;;;;;;;;8.60;99.90;;;;;;5094686;28;20033;-76
2021/11/21 09:41:01;;;;;;;;;;;8.70;99.90;;;;;;5097182;28;20294;-75
2021/11/21 09:43:26;;;;;;;;;;;8.70;99.90;;;;;;5094982;28;19970;-76
2021/11/21 09:45:52;;;;;;;;;;;8.70;99.90;;;;;;5083178;28;19955;-76
2021/11/21 09:48:18;;;;;;;;;;;8.70;99.90;;;;;;5088590;28;19919;-76
2021/11/21 09:50:44;;;;;;;;;;;8.80;99.90;;;;;;5092958;28;19924;-76
2021/11/21 09:53:10;;;;;;;;;;;8.80;99.90;;;;;;5095056;28;20326;-76
2021/11/21 09:55:36;;;;;;;;;;;8.90;99.90;;;;;;5107787;28;20303;-76
2021/11/21 09:58:02;;;;;;;;;;;8.90;99.90;;;;;;5096279;28;19955;-76
2021/11/21 10:00:28;;;;;;;;;;;9.00;99.90;;;;;;5097078;28;19963;-77
2021/11/21 10:02:58;;;;;;;;;;;9.00;99.90;;;;;;5097296;28;19912;-77
2021/11/21 10:05:27;;;;;;;;;;;9.10;99.90;;;;;;5092585;28;19912;-77
2021/11/21 10:08:05;;;;;;;;;;;9.10;99.90;;;;;;5095590;28;20290;-76
2021/11/21 10:10:39;;;;;;;;;;;9.20;99.90;;;;;;5093812;28;19955;-76
2021/11/21 10:13:21;;;;;;;;;;;9.20;99.90;;;;;;5095240;28;20210;-78
2021/11/21 10:15:46;;;;;;;;;;;9.20;99.90;;;;;;5095347;28;19920;-79
2021/11/21 10:18:12;;;;;;;;;;;9.30;99.90;;;;;;5094988;28;19916;-80
2021/11/21 10:20:39;;;;;;;;;;;9.40;99.90;;;;;;5093372;28;20211;-80
2021/11/21 10:23:08;;;;;;;;;;;9.50;99.90;;;;;;5092379;28;19967;-79
2021/11/21 10:25:34;;;;;;;;;;;9.40;99.90;;;;;;5089154;28;19927;-83
2021/11/21 10:28:11;;;;;;;;;;;9.20;99.90;;;;;;5092025;28;19927;-80
2021/11/21 10:30:57;;;;;;;;;;;8.90;99.90;;;;;;5091793;28;19920;-77
2021/11/21 10:33:26;;;;;;;;;;;8.70;99.90;;;;;;5086408;28;19927;-77
2021/11/21 10:35:56;;;;;;;;;;;8.50;99.90;;;;;;5092347;28;19916;-76
2021/11/21 10:38:29;;;;;;;;;;;8.40;99.90;;;;;;5092261;28;19927;-77
2021/11/21 10:40:55;;;;;;;;;;;8.50;99.90;;;;;;5093288;28;19912;-77
2021/11/21 10:43:21;;;;;;;;;;;8.60;99.90;;;;;;5092704;28;19926;-76
2021/11/21 10:45:49;;;;;;;;;;;8.80;99.90;;;;;;5092431;28;19916;-79
2021/11/21 10:48:22;;;;;;;;;;;8.90;99.90;;;;;;5083324;28;19912;-77
2021/11/21 10:50:51;;;;;;;;;;;9.00;99.90;;;;;;5091374;28;20073;-77
2021/11/21 10:53:17;;;;;;;;;;;9.10;99.90;;;;;;5091941;28;19994;-77
2021/11/21 10:55:42;;;;;;;;;;;9.20;99.90;;;;;;5094947;28;20279;-78
2021/11/21 10:58:11;;;;;;;;;;;9.20;99.90;;;;;;5082341;28;19915;-79
2021/11/21 11:00:37;;;;;;;;;;;9.30;99.90;;;;;;5094319;28;20310;-76
2021/11/21 11:03:03;;;;;;;;;;;9.30;99.90;;;;;;5093058;28;19957;-77
2021/11/21 11:05:29;;;;;;;;;;;9.40;99.90;;;;;;5094880;28;19923;-83
2021/11/21 11:07:55;;;;;;;;;;;9.40;99.90;;;;;;5092064;28;19919;-76
2021/11/21 11:10:29;;;;;;;;;;;9.50;99.90;;;;;;5092846;28;19912;-77
2021/11/21 11:13:06;;;;;;;;;;;9.60;99.90;;;;;;5092220;28;19920;-77
2021/11/21 11:15:37;;;;;;;;;;;9.60;99.90;;;;;;5089772;28;20578;-77
2021/11/21 11:18:03;;;;;;;;;;;9.70;99.90;;;;;;5092139;28;19919;-77
2021/11/21 11:20:29;;;;;;;;;;;9.70;99.90;;;;;;5093333;28;19916;-79
2021/11/21 11:22:58;;;;;;;;;;;9.60;99.90;;;;;;5095555;28;19920;-79
2021/11/21 11:25:25;;;;;;;;;;;9.60;99.90;;;;;;5091753;28;19963;-81
2021/11/21 11:27:57;;;;;;;;;;;9.60;99.90;;;;;;5093845;28;19935;-79
2021/11/21 11:30:28;;;;;;;;;;;9.70;99.90;;;;;;5087748;28;19916;-85
2021/11/21 11:33:07;;;;;;;;;;;9.60;99.90;;;;;;5087586;28;20318;-77
2021/11/21 11:35:35;;;;;;;;;;;9.70;99.90;;;;;;5087329;28;19924;-79
2021/11/21 11:38:08;;;;;;;;;;;9.70;99.90;;;;;;5093999;28;20159;-79
2021/11/21 11:40:44;;;;;;;;;;;9.80;99.90;;;;;;5092857;28;19920;-78
2021/11/21 11:43:16;;;;;;;;;;;9.80;99.90;;;;;;5090039;28;19969;-77
2021/11/21 11:45:43;;;;;;;;;;;9.90;99.90;;;;;;5093283;28;19924;-86
2021/11/21 11:48:27;;;;;;;;;;;10.00;99.90;;;;;;5086902;28;19920;-79
2021/11/21 11:50:53;;;;;;;;;;;10.00;99.90;;;;;;5086327;28;20077;-82
2021/11/21 11:53:33;;;;;;;;;;;10.20;99.90;;;;;;5091141;28;20374;-80
2021/11/21 11:56:10;;;;;;;;;;;10.40;99.90;;;;;;5088465;28;19922;-79
2021/11/21 11:58:43;;;;;;;;;;;9.90;99.90;;;;;;5086492;27;20307;-77
2021/11/21 12:01:09;;;;;;;;;;;8.90;99.90;;;;;;5089111;28;20408;-79
2021/11/21 12:03:37;;;;;;;;;;;8.40;99.90;;;;;;5078571;28;19970;-86
2021/11/21 12:06:04;;;;;;;;;;;8.20;99.90;;;;;;5103901;28;19938;-79
2021/11/21 12:08:29;;;;;;;;;;;8.10;99.90;;;;;;5087708;28;19962;-78
2021/11/21 12:10:55;;;;;;;;;;;8.10;99.90;;;;;;5092164;28;19924;-78
2021/11/21 12:13:31;;;;;;;;;;;8.30;99.90;;;;;;5085765;28;19920;-79
2021/11/21 12:16:01;;;;;;;;;;;8.50;99.90;;;;;;5089908;28;19922;-79
2021/11/21 12:18:46;;;;;;;;;;;8.70;99.90;;;;;;5087016;28;19915;-77
2021/11/21 12:21:11;;;;;;;;;;;8.80;99.90;;;;;;5087033;28;20042;-79
2021/11/21 12:23:40;;;;;;;;;;;8.90;99.90;;;;;;5088011;28;20002;-79
2021/11/21 12:26:21;;;;;;;;;;;8.90;99.90;;;;;;5088111;28;19943;-78
2021/11/21 12:29:07;;;;;;;;;;;9.00;99.90;;;;;;5093123;28;19920;-78
2021/11/21 12:31:34;;;;;;;;;;;9.00;99.90;;;;;;5092911;28;19924;-78
2021/11/21 12:34:18;;;;;;;;;;;9.00;99.90;;;;;;5092481;28;19998;-84
2021/11/21 12:37:03;;;;;;;;;;;9.00;99.90;;;;;;5090940;28;19916;-78
2021/11/21 12:39:32;;;;;;;;;;;9.10;99.90;;;;;;5090640;28;19920;-95
2021/11/21 12:42:05;;;;;;;;;;;9.10;99.90;;;;;;5092071;28;19916;-79
2021/11/21 12:44:30;;;;;;;;;;;9.20;99.90;;;;;;5092548;28;19946;-80
2021/11/21 12:47:03;;;;;;;;;;;9.30;99.90;;;;;;5094837;28;19916;-81
2021/11/21 12:49:29;;;;;;;;;;;9.30;99.90;;;;;;5089165;28;20203;-78
2021/11/21 12:52:06;;;;;;;;;;;9.40;99.90;;;;;;5093274;28;19927;-78
2021/11/21 12:54:33;;;;;;;;;;;9.40;99.90;;;;;;5109852;27;19916;-79
2021/11/21 12:56:59;;;;;;;;;;;9.50;99.90;;;;;;5093182;28;19920;-79
2021/11/21 12:59:43;;;;;;;;;;;9.60;99.90;;;;;;5091245;28;19912;-77
2021/11/21 13:02:13;;;;;;;;;;;9.60;99.90;;;;;;5092958;28;19927;-80
2021/11/21 13:05:05;;;;;;;;;;;9.60;99.90;;;;;;5086461;28;20026;-79
2021/11/21 13:07:31;;;;;;;;;;;9.60;99.90;;;;;;5087913;28;20010;-78
2021/11/21 13:10:07;;;;;;;;;;;9.70;99.90;;;;;;5092449;28;19916;-78
2021/11/21 13:12:35;;;;;;;;;;;9.70;99.90;;;;;;5098050;27;19927;-77
2021/11/21 13:15:03;;;;;;;;;;;9.70;99.90;;;;;;5118877;27;19943;-79
2021/11/21 13:17:29;;;;;;;;;;;9.70;99.90;;;;;;5116815;27;20584;-81
2021/11/21 13:19:59;;;;;;;;;;;9.70;99.90;;;;;;5094381;28;19951;-80
2021/11/21 13:22:24;;;;;;;;;;;9.80;99.90;;;;;;5095376;28;19999;-80
2021/11/21 13:24:52;;;;;;;;;;;9.60;99.90;;;;;;5095788;28;20034;-79
2021/11/21 13:27:18;;;;;;;;;;;9.40;99.90;;;;;;5096257;28;19912;-80
2021/11/21 13:29:43;;;;;;;;;;;9.20;99.90;;;;;;5093197;28;20326;-80
2021/11/21 13:32:09;;;;;;;;;;;9.10;99.90;;;;;;5095772;28;20017;-79
2021/11/21 13:34:35;;;;;;;;;;;9.00;99.90;;;;;;5095489;28;20325;-80
2021/11/21 13:37:02;;;;;;;;;;;9.00;99.90;;;;;;5099701;28;19931;-79
2021/11/21 13:39:30;;;;;;;;;;;9.10;99.90;;;;;;5091021;28;19916;-79
2021/11/21 13:42:01;;;;;;;;;;;9.20;99.90;;;;;;5092625;28;19919;-80
2021/11/21 13:44:28;;;;;;;;;;;9.30;99.90;;;;;;5094681;28;19916;-79
2021/11/21 13:46:58;;;;;;;;;;;9.40;99.90;;;;;;5089669;28;20054;-79
2021/11/21 13:49:25;;;;;;;;;;;9.40;99.90;;;;;;5092747;28;19912;-78
2021/11/21 13:52:07;;;;;;;;;;;9.40;99.90;;;;;;5095677;28;19920;-80
2021/11/21 13:54:37;;;;;;;;;;;9.40;99.90;;;;;;5092824;28;19916;-78
2021/11/21 13:57:03;;;;;;;;;;;9.60;99.90;;;;;;5094095;28;19920;-80
2021/11/21 13:59:39;;;;;;;;;;;9.50;99.90;;;;;;5091044;28;20006;-78
2021/11/21 14:02:05;;;;;;;;;;;9.50;99.90;;;;;;5096697;28;19995;-79
2021/11/21 14:04:32;;;;;;;;;;;9.40;99.90;;;;;;5110969;28;20267;-79
2021/11/21 14:07:10;;;;;;;;;;;9.30;99.90;;;;;;5091761;28;19916;-78
2021/11/21 14:09:50;;;;;;;;;;;9.10;99.90;;;;;;5125913;27;19912;-78
2021/11/21 14:12:22;;;;;;;;;;;9.00;99.90;;;;;;5083647;28;19973;-78
2021/11/21 14:15:07;;;;;;;;;;;8.80;99.90;;;;;;5108905;27;20010;-78
2021/11/21 14:17:43;;;;;;;;;;;8.70;99.90;;;;;;5080029;28;19931;-78
2021/11/21 14:20:10;;;;;;;;;;;8.60;99.90;;;;;;5095495;28;19912;-94
2021/11/21 14:22:39;;;;;;;;;;;8.50;99.90;;;;;;5093280;28;19959;-78
2021/11/21 14:25:05;;;;;;;;;;;8.50;99.90;;;;;;5108830;28;19934;-78
2021/11/21 14:27:31;;;;;;;;;;;8.40;99.90;;;;;;5090890;28;19911;-81
2021/11/21 14:30:04;;;;;;;;;;;8.40;99.90;;;;;;5095600;28;19927;-81
2021/11/21 14:32:30;;;;;;;;;;;8.40;99.90;;;;;;5090383;28;20269;-80
2021/11/21 14:34:55;;;;;;;;;;;8.50;99.90;;;;;;5088347;28;19912;-88